sensor_id;sensor_type;location;lat;lon;timestamp;temperature;humidity
23715;DHT22;12036;50.858;4.472;2023-04-03T00:00:14;2.80;99.90
23715;DHT22;12036;50.858;4.472;2023-04-03T00:02:40;2.80;99.90
23715;DHT22;12036;50.858;4.472;2023-04-03T00:05:06;2.80;99.90
23715;DHT22;12036;50.858;4.472;2023-04-03T00:07:32;2.90;99.90
23715;DHT22;12036;50.858;4.472;2023-04-03T00:09:58;2.90;99.90
23715;DHT22;12036;50.858;4.472;2023-04-03T00:12:24;2.90;99.90
23715;DHT22;12036;50.858;4.472;2023-04-03T00:14:49;2.90;99.90
23715;DHT22;12036;50.858;4.472;2023-04-03T00:17:15;2.90;99.90
23715;DHT22;12036;50.858;4.472;2023-04-03T00:19:40;2.90;99.90
23715;DHT22;12036;50.858;4.472;2023-04-03T00:22:06;2.90;99.90
23715;DHT22;12036;50.858;4.472;2023-04-03T00:24:32;2.90;99.90
23715;DHT22;12036;50.858;4.472;2023-04-03T00:26:57;2.90;99.90
23715;DHT22;12036;50.858;4.472;2023-04-03T00:29:23;3.00;99.90
23715;DHT22;12036;50.858;4.472;2023-04-03T00:31:49;3.00;99.90
23715;DHT22;12036;50.858;4.472;2023-04-03T00:34:14;3.10;99.90
23715;DHT22;12036;50.858;4.472;2023-04-03T00:36:40;3.10;99.90
23715;DHT22;12036;50.858;4.472;2023-04-03T00:39:06;3.10;99.90
23715;DHT22;12036;50.858;4.472;2023-04-03T00:41:31;3.20;99.90
23715;DHT22;12036;50.858;4.472;2023-04-03T00:43:57;3.20;99.90
23715;DHT22;12036;50.858;4.472;2023-04-03T00:46:23;3.10;99.90
23715;DHT22;12036;50.858;4.472;2023-04-03T00:48:49;3.00;99.90
23715;DHT22;12036;50.858;4.472;2023-04-03T00:51:22;3.00;99.90
23715;DHT22;12036;50.858;4.472;2023-04-03T00:53:50;2.90;99.90
23715;DHT22;12036;50.858;4.472;2023-04-03T00:56:20;2.90;99.90
23715;DHT22;12036;50.858;4.472;2023-04-03T00:59:13;2.80;99.90
23715;DHT22;12036;50.858;4.472;2023-04-03T01:01:35;2.80;99.90
23715;DHT22;12036;50.858;4.472;2023-04-03T01:04:02;2.80;99.90
23715;DHT22;12036;50.858;4.472;2023-04-03T01:06:31;2.70;99.90
23715;DHT22;12036;50.858;4.472;2023-04-03T01:08:58;2.70;99.90
23715;DHT22;12036;50.858;4.472;2023-04-03T01:11:24;2.70;99.90
23715;DHT22;12036;50.858;4.472;2023-04-03T01:13:50;2.60;99.90
23715;DHT22;12036;50.858;4.472;2023-04-03T01:16:16;2.60;99.90
23715;DHT22;12036;50.858;4.472;2023-04-03T01:18:42;2.60;99.90
23715;DHT22;12036;50.858;4.472;2023-04-03T01:24:57;2.70;99.90
23715;DHT22;12036;50.858;4.472;2023-04-03T01:27:06;2.70;99.90
23715;DHT22;12036;50.858;4.472;2023-04-03T01:29:32;2.70;99.90
23715;DHT22;12036;50.858;4.472;2023-04-03T01:32:00;2.70;99.90
23715;DHT22;12036;50.858;4.472;2023-04-03T01:34:26;2.70;99.90
23715;DHT22;12036;50.858;4.472;2023-04-03T01:36:52;2.70;99.90
23715;DHT22;12036;50.858;4.472;2023-04-03T01:39:19;2.60;99.90
23715;DHT22;12036;50.858;4.472;2023-04-03T01:41:45;2.60;99.90
23715;DHT22;12036;50.858;4.472;2023-04-03T01:44:11;2.60;99.90
23715;DHT22;12036;50.858;4.472;2023-04-03T01:46:36;2.50;99.90
23715;DHT22;12036;50.858;4.472;2023-04-03T01:49:03;2.50;99.90
23715;DHT22;12036;50.858;4.472;2023-04-03T01:51:29;2.50;99.90
23715;DHT22;12036;50.858;4.472;2023-04-03T01:53:55;2.40;99.90
23715;DHT22;12036;50.858;4.472;2023-04-03T01:56:21;2.40;99.90
23715;DHT22;12036;50.858;4.472;2023-04-03T01:58:46;2.40;99.90
23715;DHT22;12036;50.858;4.472;2023-04-03T02:01:12;2.50;99.90
23715;DHT22;12036;50.858;4.472;2023-04-03T02:03:38;2.50;99.90
23715;DHT22;12036;50.858;4.472;2023-04-03T02:06:04;2.60;99.90
23715;DHT22;12036;50.858;4.472;2023-04-03T02:08:29;2.60;99.90
23715;DHT22;12036;50.858;4.472;2023-04-03T02:10:55;2.60;99.90
23715;DHT22;12036;50.858;4.472;2023-04-03T02:13:21;2.60;99.90
23715;DHT22;12036;50.858;4.472;2023-04-03T02:15:46;2.60;99.90
23715;DHT22;12036;50.858;4.472;2023-04-03T02:18:15;2.60;99.90
23715;DHT22;12036;50.858;4.472;2023-04-03T02:20:41;2.60;99.90
23715;DHT22;12036;50.858;4.472;2023-04-03T02:23:07;2.60;99.90
23715;DHT22;12036;50.858;4.472;2023-04-03T02:25:33;2.60;99.90
23715;DHT22;12036;50.858;4.472;2023-04-03T02:27:58;2.60;99.90
23715;DHT22;12036;50.858;4.472;2023-04-03T02:30:25;2.70;99.90
23715;DHT22;12036;50.858;4.472;2023-04-03T02:32:51;2.70;99.90
23715;DHT22;12036;50.858;4.472;2023-04-03T02:35:19;2.70;99.90
23715;DHT22;12036;50.858;4.472;2023-04-03T02:37:45;2.70;99.90
23715;DHT22;12036;50.858;4.472;2023-04-03T02:40:11;2.70;99.90
23715;DHT22;12036;50.858;4.472;2023-04-03T02:42:37;2.70;99.90
23715;DHT22;12036;50.858;4.472;2023-04-03T02:45:03;2.70;99.90
23715;DHT22;12036;50.858;4.472;2023-04-03T02:47:29;2.70;99.90
23715;DHT22;12036;50.858;4.472;2023-04-03T02:49:55;2.70;99.90
23715;DHT22;12036;50.858;4.472;2023-04-03T02:52:21;2.70;99.90
23715;DHT22;12036;50.858;4.472;2023-04-03T02:54:47;2.60;99.90
23715;DHT22;12036;50.858;4.472;2023-04-03T02:57:12;2.60;99.90
23715;DHT22;12036;50.858;4.472;2023-04-03T02:59:38;2.60;99.90
23715;DHT22;12036;50.858;4.472;2023-04-03T03:02:10;2.60;99.90
23715;DHT22;12036;50.858;4.472;2023-04-03T03:04:36;2.60;99.90
23715;DHT22;12036;50.858;4.472;2023-04-03T03:07:02;2.60;99.90
23715;DHT22;12036;50.858;4.472;2023-04-03T03:09:28;2.50;99.90
23715;DHT22;12036;50.858;4.472;2023-04-03T03:11:55;2.50;99.90
23715;DHT22;12036;50.858;4.472;2023-04-03T03:14:21;2.50;99.90
23715;DHT22;12036;50.858;4.472;2023-04-03T03:16:47;2.50;99.90
23715;DHT22;12036;50.858;4.472;2023-04-03T03:19:13;2.50;99.90
23715;DHT22;12036;50.858;4.472;2023-04-03T03:21:38;2.50;99.90
23715;DHT22;12036;50.858;4.472;2023-04-03T03:24:04;2.50;99.90
23715;DHT22;12036;50.858;4.472;2023-04-03T03:26:30;2.50;99.90
23715;DHT22;12036;50.858;4.472;2023-04-03T03:28:56;2.40;99.90
23715;DHT22;12036;50.858;4.472;2023-04-03T03:31:21;2.40;99.90
23715;DHT22;12036;50.858;4.472;2023-04-03T03:33:47;2.40;99.90
23715;DHT22;12036;50.858;4.472;2023-04-03T03:36:13;2.40;99.90
23715;DHT22;12036;50.858;4.472;2023-04-03T03:38:38;2.40;99.90
23715;DHT22;12036;50.858;4.472;2023-04-03T03:41:04;2.40;99.90
23715;DHT22;12036;50.858;4.472;2023-04-03T03:43:30;2.30;99.90
23715;DHT22;12036;50.858;4.472;2023-04-03T03:45:55;2.30;99.90
23715;DHT22;12036;50.858;4.472;2023-04-03T03:48:22;2.30;99.90
23715;DHT22;12036;50.858;4.472;2023-04-03T03:50:48;2.30;99.90
23715;DHT22;12036;50.858;4.472;2023-04-03T03:53:15;2.30;99.90
23715;DHT22;12036;50.858;4.472;2023-04-03T03:55:40;2.20;99.90
23715;DHT22;12036;50.858;4.472;2023-04-03T03:58:06;2.20;99.90
23715;DHT22;12036;50.858;4.472;2023-04-03T04:00:32;2.20;99.90
23715;DHT22;12036;50.858;4.472;2023-04-03T04:02:58;2.10;99.90
23715;DHT22;12036;50.858;4.472;2023-04-03T04:05:24;2.00;99.90
23715;DHT22;12036;50.858;4.472;2023-04-03T04:07:49;2.00;99.90
23715;DHT22;12036;50.858;4.472;2023-04-03T04:10:16;2.00;99.90
23715;DHT22;12036;50.858;4.472;2023-04-03T04:12:41;1.90;99.90
23715;DHT22;12036;50.858;4.472;2023-04-03T04:15:08;1.80;99.90
23715;DHT22;12036;50.858;4.472;2023-04-03T04:17:34;1.80;99.90
23715;DHT22;12036;50.858;4.472;2023-04-03T04:20:01;1.70;99.90
23715;DHT22;12036;50.858;4.472;2023-04-03T04:22:26;1.70;99.90
23715;DHT22;12036;50.858;4.472;2023-04-03T04:24:52;1.70;99.90
23715;DHT22;12036;50.858;4.472;2023-04-03T04:27:17;1.70;99.90
23715;DHT22;12036;50.858;4.472;2023-04-03T04:29:43;1.70;99.90
23715;DHT22;12036;50.858;4.472;2023-04-03T04:32:09;1.70;99.90
23715;DHT22;12036;50.858;4.472;2023-04-03T04:34:34;1.70;99.90
23715;DHT22;12036;50.858;4.472;2023-04-03T04:37:00;1.80;99.90
23715;DHT22;12036;50.858;4.472;2023-04-03T04:39:26;1.80;99.90
23715;DHT22;12036;50.858;4.472;2023-04-03T04:41:51;1.80;99.90
23715;DHT22;12036;50.858;4.472;2023-04-03T04:44:17;1.80;99.90
23715;DHT22;12036;50.858;4.472;2023-04-03T04:46:43;1.80;99.90
23715;DHT22;12036;50.858;4.472;2023-04-03T04:49:08;1.80;99.90
23715;DHT22;12036;50.858;4.472;2023-04-03T04:51:34;1.80;99.90
23715;DHT22;12036;50.858;4.472;2023-04-03T04:54:00;1.80;99.90
23715;DHT22;12036;50.858;4.472;2023-04-03T04:56:25;1.80;99.90
23715;DHT22;12036;50.858;4.472;2023-04-03T04:58:51;1.90;99.90
23715;DHT22;12036;50.858;4.472;2023-04-03T05:01:17;1.90;99.90
23715;DHT22;12036;50.858;4.472;2023-04-03T05:03:43;1.90;99.90
23715;DHT22;12036;50.858;4.472;2023-04-03T05:06:09;1.90;99.90
23715;DHT22;12036;50.858;4.472;2023-04-03T05:08:35;2.10;99.90
23715;DHT22;12036;50.858;4.472;2023-04-03T05:11:01;2.10;99.90
23715;DHT22;12036;50.858;4.472;2023-04-03T05:13:26;2.10;99.90
23715;DHT22;12036;50.858;4.472;2023-04-03T05:15:52;2.00;99.90
23715;DHT22;12036;50.858;4.472;2023-04-03T05:18:18;2.10;99.90
23715;DHT22;12036;50.858;4.472;2023-04-03T05:20:43;2.10;99.90
23715;DHT22;12036;50.858;4.472;2023-04-03T05:23:10;2.10;99.90
23715;DHT22;12036;50.858;4.472;2023-04-03T05:25:38;2.10;99.90
23715;DHT22;12036;50.858;4.472;2023-04-03T05:28:03;2.10;99.90
23715;DHT22;12036;50.858;4.472;2023-04-03T05:30:29;2.20;99.90
23715;DHT22;12036;50.858;4.472;2023-04-03T05:32:55;2.10;99.90
23715;DHT22;12036;50.858;4.472;2023-04-03T05:35:21;2.10;99.90
23715;DHT22;12036;50.858;4.472;2023-04-03T05:37:46;2.20;99.90
23715;DHT22;12036;50.858;4.472;2023-04-03T05:40:12;2.20;99.90
23715;DHT22;12036;50.858;4.472;2023-04-03T05:42:38;2.30;99.90
23715;DHT22;12036;50.858;4.472;2023-04-03T05:45:04;2.30;99.90
23715;DHT22;12036;50.858;4.472;2023-04-03T05:47:30;2.30;99.90
23715;DHT22;12036;50.858;4.472;2023-04-03T05:49:56;2.30;99.90
23715;DHT22;12036;50.858;4.472;2023-04-03T05:52:30;2.40;99.90
23715;DHT22;12036;50.858;4.472;2023-04-03T05:54:57;2.50;99.90
23715;DHT22;12036;50.858;4.472;2023-04-03T05:57:22;2.50;99.90
23715;DHT22;12036;50.858;4.472;2023-04-03T05:59:48;2.60;99.90
23715;DHT22;12036;50.858;4.472;2023-04-03T06:02:17;2.60;99.90
23715;DHT22;12036;50.858;4.472;2023-04-03T06:04:43;2.70;99.90
23715;DHT22;12036;50.858;4.472;2023-04-03T06:07:14;2.80;99.90
23715;DHT22;12036;50.858;4.472;2023-04-03T06:09:41;2.80;99.90
23715;DHT22;12036;50.858;4.472;2023-04-03T06:12:07;2.90;99.90
23715;DHT22;12036;50.858;4.472;2023-04-03T06:14:33;3.00;99.90
23715;DHT22;12036;50.858;4.472;2023-04-03T06:16:59;3.10;99.90
23715;DHT22;12036;50.858;4.472;2023-04-03T06:19:25;3.10;99.90
23715;DHT22;12036;50.858;4.472;2023-04-03T06:21:51;3.30;99.90
23715;DHT22;12036;50.858;4.472;2023-04-03T06:24:17;3.30;99.90
23715;DHT22;12036;50.858;4.472;2023-04-03T06:26:43;3.30;99.90
23715;DHT22;12036;50.858;4.472;2023-04-03T06:29:09;3.50;99.90
23715;DHT22;12036;50.858;4.472;2023-04-03T06:31:35;3.60;99.90
23715;DHT22;12036;50.858;4.472;2023-04-03T06:34:05;3.60;99.90
23715;DHT22;12036;50.858;4.472;2023-04-03T06:36:31;3.70;99.90
23715;DHT22;12036;50.858;4.472;2023-04-03T06:38:57;3.70;99.90
23715;DHT22;12036;50.858;4.472;2023-04-03T06:41:23;3.80;99.90
23715;DHT22;12036;50.858;4.472;2023-04-03T06:43:49;3.90;99.90
23715;DHT22;12036;50.858;4.472;2023-04-03T06:46:20;3.90;99.90
23715;DHT22;12036;50.858;4.472;2023-04-03T06:48:46;4.00;99.90
23715;DHT22;12036;50.858;4.472;2023-04-03T06:53:45;4.10;99.90
23715;DHT22;12036;50.858;4.472;2023-04-03T06:56:11;4.20;99.90
23715;DHT22;12036;50.858;4.472;2023-04-03T06:58:37;4.30;99.90
23715;DHT22;12036;50.858;4.472;2023-04-03T07:01:03;4.40;99.90
23715;DHT22;12036;50.858;4.472;2023-04-03T07:03:28;4.50;99.90
23715;DHT22;12036;50.858;4.472;2023-04-03T07:05:54;4.70;99.90
23715;DHT22;12036;50.858;4.472;2023-04-03T07:08:20;5.30;99.90
23715;DHT22;12036;50.858;4.472;2023-04-03T07:10:46;6.40;99.90
23715;DHT22;12036;50.858;4.472;2023-04-03T07:13:12;8.90;99.90
23715;DHT22;12036;50.858;4.472;2023-04-03T07:15:37;10.50;99.90
23715;DHT22;12036;50.858;4.472;2023-04-03T07:18:03;10.60;99.90
23715;DHT22;12036;50.858;4.472;2023-04-03T07:20:29;11.10;99.90
23715;DHT22;12036;50.858;4.472;2023-04-03T07:22:55;11.50;99.30
23715;DHT22;12036;50.858;4.472;2023-04-03T07:25:21;10.90;99.90
23715;DHT22;12036;50.858;4.472;2023-04-03T07:27:47;10.00;99.90
23715;DHT22;12036;50.858;4.472;2023-04-03T07:30:13;9.50;99.90
23715;DHT22;12036;50.858;4.472;2023-04-03T07:32:39;9.70;99.90
23715;DHT22;12036;50.858;4.472;2023-04-03T07:35:05;10.90;99.90
23715;DHT22;12036;50.858;4.472;2023-04-03T07:37:31;12.90;98.10
23715;DHT22;12036;50.858;4.472;2023-04-03T07:39:58;15.30;92.90
23715;DHT22;12036;50.858;4.472;2023-04-03T07:42:24;16.50;82.00
23715;DHT22;12036;50.858;4.472;2023-04-03T07:44:53;17.80;72.40
23715;DHT22;12036;50.858;4.472;2023-04-03T07:47:19;18.90;63.00
23715;DHT22;12036;50.858;4.472;2023-04-03T07:49:45;19.30;59.50
23715;DHT22;12036;50.858;4.472;2023-04-03T07:52:11;19.40;57.20
23715;DHT22;12036;50.858;4.472;2023-04-03T07:54:37;19.10;55.70
23715;DHT22;12036;50.858;4.472;2023-04-03T07:57:03;18.50;55.50
23715;DHT22;12036;50.858;4.472;2023-04-03T07:59:28;17.90;56.70
23715;DHT22;12036;50.858;4.472;2023-04-03T08:01:54;17.80;58.00
23715;DHT22;12036;50.858;4.472;2023-04-03T08:04:20;17.90;57.00
23715;DHT22;12036;50.858;4.472;2023-04-03T08:06:46;17.70;56.40
23715;DHT22;12036;50.858;4.472;2023-04-03T08:09:13;17.30;57.60
23715;DHT22;12036;50.858;4.472;2023-04-03T08:11:39;16.80;57.80
23715;DHT22;12036;50.858;4.472;2023-04-03T08:14:05;16.60;56.90
23715;DHT22;12036;50.858;4.472;2023-04-03T08:16:31;16.40;57.10
23715;DHT22;12036;50.858;4.472;2023-04-03T08:18:57;16.10;57.40
23715;DHT22;12036;50.858;4.472;2023-04-03T08:21:23;15.70;60.10
23715;DHT22;12036;50.858;4.472;2023-04-03T08:23:49;15.30;60.50
23715;DHT22;12036;50.858;4.472;2023-04-03T08:26:20;14.90;61.00
23715;DHT22;12036;50.858;4.472;2023-04-03T08:28:47;14.10;63.50
23715;DHT22;12036;50.858;4.472;2023-04-03T08:31:17;13.80;64.60
23715;DHT22;12036;50.858;4.472;2023-04-03T08:33:44;13.50;68.10
23715;DHT22;12036;50.858;4.472;2023-04-03T08:38:44;12.60;71.40
23715;DHT22;12036;50.858;4.472;2023-04-03T08:49:56;12.00;77.80
23715;DHT22;12036;50.858;4.472;2023-04-03T08:52:08;12.40;76.40
23715;DHT22;12036;50.858;4.472;2023-04-03T08:54:40;12.50;74.90
23715;DHT22;12036;50.858;4.472;2023-04-03T08:57:10;12.40;73.80
23715;DHT22;12036;50.858;4.472;2023-04-03T08:59:38;12.20;73.20
23715;DHT22;12036;50.858;4.472;2023-04-03T09:02:20;12.50;72.30
23715;DHT22;12036;50.858;4.472;2023-04-03T09:04:48;12.60;71.80
23715;DHT22;12036;50.858;4.472;2023-04-03T09:07:37;13.20;70.50
23715;DHT22;12036;50.858;4.472;2023-04-03T09:10:05;14.00;68.40
23715;DHT22;12036;50.858;4.472;2023-04-03T09:12:41;14.50;65.50
23715;DHT22;12036;50.858;4.472;2023-04-03T09:15:24;14.70;63.20
23715;DHT22;12036;50.858;4.472;2023-04-03T09:18:13;14.50;61.70
23715;DHT22;12036;50.858;4.472;2023-04-03T09:23:26;14.30;62.70
23715;DHT22;12036;50.858;4.472;2023-04-03T09:26:00;15.20;61.30
23715;DHT22;12036;50.858;4.472;2023-04-03T09:28:30;16.70;58.80
23715;DHT22;12036;50.858;4.472;2023-04-03T09:30:56;18.10;54.70
23715;DHT22;12036;50.858;4.472;2023-04-03T09:33:22;19.10;52.30
23715;DHT22;12036;50.858;4.472;2023-04-03T09:35:48;19.50;50.90
23715;DHT22;12036;50.858;4.472;2023-04-03T09:38:20;19.90;50.00
23715;DHT22;12036;50.858;4.472;2023-04-03T09:41:06;20.30;48.70
23715;DHT22;12036;50.858;4.472;2023-04-03T09:43:34;20.40;46.50
23715;DHT22;12036;50.858;4.472;2023-04-03T09:46:18;20.50;47.00
23715;DHT22;12036;50.858;4.472;2023-04-03T09:48:51;20.80;46.20
23715;DHT22;12036;50.858;4.472;2023-04-03T09:51:17;21.10;45.20
23715;DHT22;12036;50.858;4.472;2023-04-03T09:53:44;21.00;45.00
23715;DHT22;12036;50.858;4.472;2023-04-03T09:58:50;21.30;44.40
23715;DHT22;12036;50.858;4.472;2023-04-03T10:04:14;21.30;43.00
23715;DHT22;12036;50.858;4.472;2023-04-03T10:06:43;21.20;43.40
23715;DHT22;12036;50.858;4.472;2023-04-03T10:14:39;20.90;43.40
23715;DHT22;12036;50.858;4.472;2023-04-03T10:19:42;20.60;44.00
23715;DHT22;12036;50.858;4.472;2023-04-03T10:36:22;14.30;50.80
23715;DHT22;12036;50.858;4.472;2023-04-03T10:39:34;14.00;52.40
23715;DHT22;12036;50.858;4.472;2023-04-03T10:45:24;13.40;51.70
23715;DHT22;12036;50.858;4.472;2023-04-03T10:48:07;13.00;52.50
23715;DHT22;12036;50.858;4.472;2023-04-03T10:53:39;12.20;51.30
23715;DHT22;12036;50.858;4.472;2023-04-03T10:56:13;12.00;51.80
23715;DHT22;12036;50.858;4.472;2023-04-03T10:58:48;12.00;50.60
23715;DHT22;12036;50.858;4.472;2023-04-03T11:01:21;12.70;50.20
23715;DHT22;12036;50.858;4.472;2023-04-03T11:03:54;13.50;49.30
23715;DHT22;12036;50.858;4.472;2023-04-03T11:06:24;14.20;48.40
23715;DHT22;12036;50.858;4.472;2023-04-03T11:08:55;14.50;47.50
23715;DHT22;12036;50.858;4.472;2023-04-03T11:11:32;14.90;47.00
23715;DHT22;12036;50.858;4.472;2023-04-03T11:16:30;15.60;46.50
23715;DHT22;12036;50.858;4.472;2023-04-03T11:19:18;16.30;45.50
23715;DHT22;12036;50.858;4.472;2023-04-03T11:22:08;16.10;46.10
23715;DHT22;12036;50.858;4.472;2023-04-03T11:24:37;16.20;45.30
23715;DHT22;12036;50.858;4.472;2023-04-03T11:27:05;16.30;45.30
23715;DHT22;12036;50.858;4.472;2023-04-03T11:29:35;16.50;45.90
23715;DHT22;12036;50.858;4.472;2023-04-03T11:34:58;16.10;46.50
23715;DHT22;12036;50.858;4.472;2023-04-03T11:40:26;16.00;45.50
23715;DHT22;12036;50.858;4.472;2023-04-03T11:43:07;16.20;44.60
23715;DHT22;12036;50.858;4.472;2023-04-03T11:46:01;15.80;43.70
23715;DHT22;12036;50.858;4.472;2023-04-03T11:53:39;14.60;46.50
23715;DHT22;12036;50.858;4.472;2023-04-03T11:56:28;14.20;46.90
23715;DHT22;12036;50.858;4.472;2023-04-03T12:01:54;13.60;46.50
23715;DHT22;12036;50.858;4.472;2023-04-03T12:04:23;13.40;47.80
23715;DHT22;12036;50.858;4.472;2023-04-03T12:12:32;13.10;46.60
23715;DHT22;12036;50.858;4.472;2023-04-03T12:17:43;12.70;46.00
23715;DHT22;12036;50.858;4.472;2023-04-03T12:20:46;12.70;46.10
23715;DHT22;12036;50.858;4.472;2023-04-03T12:25:51;12.50;44.60
23715;DHT22;12036;50.858;4.472;2023-04-03T12:28:17;12.40;45.60
23715;DHT22;12036;50.858;4.472;2023-04-03T12:30:43;12.20;46.40
23715;DHT22;12036;50.858;4.472;2023-04-03T12:36:07;12.00;46.40
23715;DHT22;12036;50.858;4.472;2023-04-03T12:44:06;12.20;45.90
23715;DHT22;12036;50.858;4.472;2023-04-03T12:46:39;12.00;46.10
23715;DHT22;12036;50.858;4.472;2023-04-03T12:51:51;12.10;45.90
23715;DHT22;12036;50.858;4.472;2023-04-03T12:54:34;12.20;45.90
23715;DHT22;12036;50.858;4.472;2023-04-03T12:57:12;12.20;44.60
23715;DHT22;12036;50.858;4.472;2023-04-03T12:59:38;12.20;46.00
23715;DHT22;12036;50.858;4.472;2023-04-03T13:02:23;12.20;46.00
23715;DHT22;12036;50.858;4.472;2023-04-03T13:04:51;12.30;44.80
23715;DHT22;12036;50.858;4.472;2023-04-03T13:07:30;12.30;44.30
23715;DHT22;12036;50.858;4.472;2023-04-03T13:12:49;12.40;45.10
23715;DHT22;12036;50.858;4.472;2023-04-03T13:15:24;12.50;45.00
23715;DHT22;12036;50.858;4.472;2023-04-03T13:17:52;12.40;43.90
23715;DHT22;12036;50.858;4.472;2023-04-03T13:20:25;12.40;43.20
23715;DHT22;12036;50.858;4.472;2023-04-03T13:25:29;12.30;44.10
23715;DHT22;12036;50.858;4.472;2023-04-03T13:27:56;12.50;44.40
23715;DHT22;12036;50.858;4.472;2023-04-03T13:30:28;12.60;44.30
23715;DHT22;12036;50.858;4.472;2023-04-03T13:32:56;12.60;43.20
23715;DHT22;12036;50.858;4.472;2023-04-03T13:35:29;12.50;43.30
23715;DHT22;12036;50.858;4.472;2023-04-03T13:37:59;12.50;43.30
23715;DHT22;12036;50.858;4.472;2023-04-03T13:40:25;12.50;44.10
23715;DHT22;12036;50.858;4.472;2023-04-03T13:43:18;12.60;44.40
23715;DHT22;12036;50.858;4.472;2023-04-03T13:48:45;12.50;44.30
23715;DHT22;12036;50.858;4.472;2023-04-03T13:54:00;12.50;44.80
23715;DHT22;12036;50.858;4.472;2023-04-03T13:56:30;12.50;45.20
23715;DHT22;12036;50.858;4.472;2023-04-03T14:04:25;12.70;46.00
23715;DHT22;12036;50.858;4.472;2023-04-03T14:06:53;12.70;44.50
23715;DHT22;12036;50.858;4.472;2023-04-03T14:09:20;12.60;44.60
23715;DHT22;12036;50.858;4.472;2023-04-03T14:11:48;12.60;43.90
23715;DHT22;12036;50.858;4.472;2023-04-03T14:14:21;12.20;44.60
23715;DHT22;12036;50.858;4.472;2023-04-03T14:16:52;12.20;44.10
23715;DHT22;12036;50.858;4.472;2023-04-03T14:19:27;12.20;44.70
23715;DHT22;12036;50.858;4.472;2023-04-03T14:21:54;12.10;44.90
23715;DHT22;12036;50.858;4.472;2023-04-03T14:24:20;12.10;45.80
23715;DHT22;12036;50.858;4.472;2023-04-03T14:26:47;12.30;45.80
23715;DHT22;12036;50.858;4.472;2023-04-03T14:29:13;12.40;46.70
23715;DHT22;12036;50.858;4.472;2023-04-03T14:31:42;12.50;44.20
23715;DHT22;12036;50.858;4.472;2023-04-03T14:34:10;12.50;44.90
23715;DHT22;12036;50.858;4.472;2023-04-03T14:36:37;12.40;44.80
23715;DHT22;12036;50.858;4.472;2023-04-03T14:39:04;12.40;45.80
23715;DHT22;12036;50.858;4.472;2023-04-03T14:41:30;12.50;45.90
23715;DHT22;12036;50.858;4.472;2023-04-03T14:43:56;12.50;45.40
23715;DHT22;12036;50.858;4.472;2023-04-03T14:46:35;12.50;45.60
23715;DHT22;12036;50.858;4.472;2023-04-03T14:49:02;12.50;45.10
23715;DHT22;12036;50.858;4.472;2023-04-03T14:51:28;12.40;45.40
23715;DHT22;12036;50.858;4.472;2023-04-03T14:53:53;12.30;44.30
23715;DHT22;12036;50.858;4.472;2023-04-03T14:56:29;12.30;45.10
23715;DHT22;12036;50.858;4.472;2023-04-03T14:59:00;12.20;45.00
23715;DHT22;12036;50.858;4.472;2023-04-03T15:01:27;12.20;43.90
23715;DHT22;12036;50.858;4.472;2023-04-03T15:03:53;12.20;43.40
23715;DHT22;12036;50.858;4.472;2023-04-03T15:06:19;12.20;44.10
23715;DHT22;12036;50.858;4.472;2023-04-03T15:08:46;12.20;44.40
23715;DHT22;12036;50.858;4.472;2023-04-03T15:11:12;12.20;42.90
23715;DHT22;12036;50.858;4.472;2023-04-03T15:13:39;12.00;43.20
23715;DHT22;12036;50.858;4.472;2023-04-03T15:16:06;12.10;43.10
23715;DHT22;12036;50.858;4.472;2023-04-03T15:18:37;12.00;44.10
23715;DHT22;12036;50.858;4.472;2023-04-03T15:21:04;12.00;44.20
23715;DHT22;12036;50.858;4.472;2023-04-03T15:23:29;12.00;44.30
23715;DHT22;12036;50.858;4.472;2023-04-03T15:25:55;11.90;44.20
23715;DHT22;12036;50.858;4.472;2023-04-03T15:30:55;11.90;44.10
23715;DHT22;12036;50.858;4.472;2023-04-03T15:33:22;12.00;44.30
23715;DHT22;12036;50.858;4.472;2023-04-03T15:35:48;12.00;44.10
23715;DHT22;12036;50.858;4.472;2023-04-03T15:38:14;11.90;44.30
23715;DHT22;12036;50.858;4.472;2023-04-03T15:40:40;12.00;44.50
23715;DHT22;12036;50.858;4.472;2023-04-03T15:43:06;12.00;44.00
23715;DHT22;12036;50.858;4.472;2023-04-03T15:45:33;12.10;44.60
23715;DHT22;12036;50.858;4.472;2023-04-03T15:48:01;12.10;45.40
23715;DHT22;12036;50.858;4.472;2023-04-03T15:50:27;12.00;45.70
23715;DHT22;12036;50.858;4.472;2023-04-03T15:52:53;12.00;45.60
23715;DHT22;12036;50.858;4.472;2023-04-03T15:55:25;11.80;46.50
23715;DHT22;12036;50.858;4.472;2023-04-03T15:57:52;11.90;46.80
23715;DHT22;12036;50.858;4.472;2023-04-03T16:00:18;12.00;46.30
23715;DHT22;12036;50.858;4.472;2023-04-03T16:02:45;12.00;46.20
23715;DHT22;12036;50.858;4.472;2023-04-03T16:05:12;12.00;46.60
23715;DHT22;12036;50.858;4.472;2023-04-03T16:07:39;11.90;46.40
23715;DHT22;12036;50.858;4.472;2023-04-03T16:10:07;12.00;46.80
23715;DHT22;12036;50.858;4.472;2023-04-03T16:12:34;12.00;47.00
23715;DHT22;12036;50.858;4.472;2023-04-03T16:14:59;11.90;47.20
23715;DHT22;12036;50.858;4.472;2023-04-03T16:17:27;11.80;47.30
23715;DHT22;12036;50.858;4.472;2023-04-03T16:19:54;11.70;47.90
23715;DHT22;12036;50.858;4.472;2023-04-03T16:22:20;11.50;48.20
23715;DHT22;12036;50.858;4.472;2023-04-03T16:24:46;11.40;48.90
23715;DHT22;12036;50.858;4.472;2023-04-03T16:27:12;11.50;48.10
23715;DHT22;12036;50.858;4.472;2023-04-03T16:29:37;11.60;48.70
23715;DHT22;12036;50.858;4.472;2023-04-03T16:32:03;11.60;49.40
23715;DHT22;12036;50.858;4.472;2023-04-03T16:34:29;11.70;49.10
23715;DHT22;12036;50.858;4.472;2023-04-03T16:36:57;11.70;48.60
23715;DHT22;12036;50.858;4.472;2023-04-03T16:39:23;11.70;48.40
23715;DHT22;12036;50.858;4.472;2023-04-03T16:41:48;11.60;48.50
23715;DHT22;12036;50.858;4.472;2023-04-03T16:44:14;11.60;48.80
23715;DHT22;12036;50.858;4.472;2023-04-03T16:46:40;11.30;49.60
23715;DHT22;12036;50.858;4.472;2023-04-03T16:49:05;11.20;50.10
23715;DHT22;12036;50.858;4.472;2023-04-03T16:51:31;11.20;50.20
23715;DHT22;12036;50.858;4.472;2023-04-03T16:53:57;11.30;49.40
23715;DHT22;12036;50.858;4.472;2023-04-03T16:56:23;11.20;49.60
23715;DHT22;12036;50.858;4.472;2023-04-03T16:58:49;11.30;49.60
23715;DHT22;12036;50.858;4.472;2023-04-03T17:01:17;11.20;49.80
23715;DHT22;12036;50.858;4.472;2023-04-03T17:03:44;11.10;50.00
23715;DHT22;12036;50.858;4.472;2023-04-03T17:06:13;11.10;50.40
23715;DHT22;12036;50.858;4.472;2023-04-03T17:08:45;11.10;50.00
23715;DHT22;12036;50.858;4.472;2023-04-03T17:11:11;11.00;50.40
23715;DHT22;12036;50.858;4.472;2023-04-03T17:13:37;10.90;50.40
23715;DHT22;12036;50.858;4.472;2023-04-03T17:16:05;10.90;50.30
23715;DHT22;12036;50.858;4.472;2023-04-03T17:18:32;10.80;50.40
23715;DHT22;12036;50.858;4.472;2023-04-03T17:20:59;10.90;50.70
23715;DHT22;12036;50.858;4.472;2023-04-03T17:23:25;10.70;50.80
23715;DHT22;12036;50.858;4.472;2023-04-03T17:25:53;10.60;50.90
23715;DHT22;12036;50.858;4.472;2023-04-03T17:28:21;10.60;50.70
23715;DHT22;12036;50.858;4.472;2023-04-03T17:30:57;10.70;51.20
23715;DHT22;12036;50.858;4.472;2023-04-03T17:33:23;10.60;51.20